Time;durP1;ratioP1;P1;durP2;ratioP2;P2;SDS_P1;SDS_P2;PMS_P1;PMS_P2;Temp;Humidity;BMP_temperature;BMP_pressure;BME280_temperature;BME280_humidity;BME280_pressure;Samples;Min_cycle;Max_cycle;Signal;HPM_P1;HPM_P2
2021/09/19 00:01:11;;;;;;;5.80;2.63;;;;;;;11.45;76.54;100556.78;4953921;29;20524;-62
2021/09/19 00:03:56;;;;;;;5.25;2.78;;;;;;;11.37;76.85;100554.81;4953740;28;20059;-63
2021/09/19 00:06:41;;;;;;;3.78;2.28;;;;;;;11.37;76.98;100549.44;4953353;29;20110;-62
2021/09/19 00:09:28;;;;;;;4.88;2.28;;;;;;;11.31;77.40;100547.31;4953419;29;20058;-62
2021/09/19 00:12:13;;;;;;;4.13;2.72;;;;;;;11.36;76.92;100544.19;4954101;29;20058;-59
2021/09/19 00:14:58;;;;;;;5.00;2.28;;;;;;;11.41;76.41;100540.09;4954175;29;20107;-62
2021/09/19 00:17:44;;;;;;;5.47;2.30;;;;;;;11.31;76.35;100544.63;4953630;29;20054;-62
2021/09/19 00:20:30;;;;;;;6.47;2.65;;;;;;;11.25;77.31;100545.19;4953570;29;20058;-64
2021/09/19 00:23:15;;;;;;;3.25;1.92;;;;;;;11.33;77.10;100541.78;4953669;28;20110;-63
2021/09/19 00:26:02;;;;;;;3.80;2.13;;;;;;;11.38;76.27;100539.53;4953228;29;20552;-62
2021/09/19 00:28:47;;;;;;;6.97;2.70;;;;;;;11.34;76.72;100538.94;4953516;29;20137;-63
2021/09/19 00:31:32;;;;;;;4.35;2.40;;;;;;;11.20;77.21;100535.84;4953514;29;20137;-62
2021/09/19 00:34:17;;;;;;;6.25;2.30;;;;;;;11.08;77.58;100538.66;4953539;28;20066;-64
2021/09/19 00:37:01;;;;;;;3.33;2.00;;;;;;;11.05;77.78;100535.41;4952864;29;20081;-62
2021/09/19 00:39:47;;;;;;;4.28;2.30;;;;;;;11.00;78.05;100545.72;4953886;29;20059;-61
2021/09/19 00:42:33;;;;;;;3.72;2.30;;;;;;;10.88;79.15;100536.94;4953221;28;20114;-62
2021/09/19 00:45:20;;;;;;;5.43;2.63;;;;;;;10.80;79.23;100537.66;4953466;29;20062;-61
2021/09/19 00:48:05;;;;;;;6.38;2.70;;;;;;;10.81;79.86;100541.19;4953054;29;20058;-67
2021/09/19 00:50:50;;;;;;;5.82;2.47;;;;;;;10.81;80.35;100530.44;4953742;29;20058;-59
2021/09/19 00:53:38;;;;;;;4.65;2.60;;;;;;;10.73;80.18;100531.13;4953130;28;20199;-63
2021/09/19 00:56:25;;;;;;;5.18;2.20;;;;;;;10.72;80.31;100532.09;4954215;29;20122;-60
2021/09/19 00:59:12;;;;;;;3.97;2.55;;;;;;;10.68;79.79;100530.69;4953258;29;20149;-62
2021/09/19 01:01:59;;;;;;;3.72;2.45;;;;;;;10.67;79.86;100522.78;4953155;29;20547;-61
2021/09/19 01:04:45;;;;;;;4.13;1.80;;;;;;;10.68;80.14;100519.97;4969611;23;20179;-64
2021/09/19 01:07:30;;;;;;;5.70;3.15;;;;;;;10.73;78.59;100506.97;4970232;28;20281;-62
2021/09/19 01:10:18;;;;;;;6.22;2.10;;;;;;;10.75;78.40;100509.50;4972626;28;20149;-60
2021/09/19 01:13:04;;;;;;;7.60;3.13;;;;;;;10.73;78.28;100508.78;4975519;28;20061;-62
2021/09/19 01:15:51;;;;;;;4.03;2.08;;;;;;;10.74;78.45;100511.34;4975818;28;20054;-61
2021/09/19 01:18:37;;;;;;;3.72;2.25;;;;;;;10.74;78.55;100514.03;4976329;28;20049;-60
2021/09/19 01:21:24;;;;;;;5.05;1.88;;;;;;;10.74;79.49;100508.66;4975718;28;20057;-61
2021/09/19 01:24:11;;;;;;;3.58;2.22;;;;;;;10.77;78.88;100513.78;4975932;28;20424;-61
2021/09/19 01:26:56;;;;;;;3.83;2.50;;;;;;;10.83;78.47;100515.88;4975563;28;20061;-63
2021/09/19 01:29:41;;;;;;;4.28;2.20;;;;;;;10.80;78.33;100510.81;4975539;28;20074;-60
2021/09/19 01:32:26;;;;;;;2.77;1.80;;;;;;;10.75;78.30;100507.66;4975921;28;20057;-61
2021/09/19 01:35:12;;;;;;;5.07;2.77;;;;;;;10.86;77.24;100516.59;4975639;28;20588;-61
2021/09/19 01:37:58;;;;;;;5.18;2.33;;;;;;;10.91;77.23;100514.34;4975284;28;20121;-61
2021/09/19 01:40:44;;;;;;;4.85;2.47;;;;;;;10.98;76.60;100510.09;4975620;28;20133;-63
2021/09/19 01:43:29;;;;;;;6.18;2.58;;;;;;;10.91;77.03;100514.34;4975577;28;20185;-62
2021/09/19 01:46:14;;;;;;;4.28;2.03;;;;;;;10.92;77.39;100513.34;4974893;28;20428;-61
2021/09/19 01:49:00;;;;;;;4.28;2.65;;;;;;;10.82;77.65;100506.13;4975445;28;20543;-60
2021/09/19 01:51:45;;;;;;;5.30;2.33;;;;;;;10.74;77.98;100513.19;4975338;28;20062;-63
2021/09/19 01:54:30;;;;;;;7.75;2.60;;;;;;;10.70;78.16;100507.25;4975398;28;20133;-60
2021/09/19 01:57:19;;;;;;;3.08;2.13;;;;;;;10.73;77.69;100506.13;4975114;28;20065;-63
2021/09/19 02:00:06;;;;;;;6.35;2.28;;;;;;;10.82;78.34;100516.03;4975317;28;20081;-60
2021/09/19 02:02:51;;;;;;;5.03;2.67;;;;;;;10.80;78.18;100512.63;4975026;28;20145;-61
2021/09/19 02:05:36;;;;;;;6.22;2.83;;;;;;;10.71;78.29;100517.00;4974984;28;20348;-60
2021/09/19 02:08:21;;;;;;;4.57;2.10;;;;;;;10.72;78.92;100505.25;4975226;28;20527;-62
2021/09/19 02:11:10;;;;;;;6.57;2.00;;;;;;;10.77;78.14;100515.56;4974777;28;20065;-61
2021/09/19 02:13:57;;;;;;;4.15;2.28;;;;;;;10.73;76.91;100515.00;4975001;28;20137;-61
2021/09/19 02:16:42;;;;;;;6.15;2.60;;;;;;;10.71;77.19;100514.31;4974520;28;20093;-60
2021/09/19 02:19:28;;;;;;;5.45;2.70;;;;;;;10.71;77.57;100506.25;4974941;28;20058;-61
2021/09/19 02:22:13;;;;;;;8.65;2.38;;;;;;;10.66;78.38;100502.31;4973566;28;20521;-61
2021/09/19 02:24:58;;;;;;;5.65;2.50;;;;;;;10.73;78.14;100504.28;4974721;28;20057;-60
2021/09/19 02:27:43;;;;;;;4.50;2.42;;;;;;;10.66;78.22;100505.84;4974530;28;20062;-63
2021/09/19 02:30:30;;;;;;;3.10;1.70;;;;;;;10.61;78.24;100513.44;4974910;28;20053;-59
2021/09/19 02:33:15;;;;;;;7.03;2.40;;;;;;;10.60;78.26;100506.38;4974385;28;20069;-61
2021/09/19 02:36:01;;;;;;;4.18;2.53;;;;;;;10.57;78.92;100506.66;4974353;28;20085;-62
2021/09/19 02:38:45;;;;;;;5.40;2.70;;;;;;;10.55;79.08;100514.00;4974590;28;20065;-62
2021/09/19 02:41:30;;;;;;;5.50;2.75;;;;;;;10.65;78.31;100514.84;4974466;28;20061;-61
2021/09/19 02:44:15;;;;;;;3.95;2.47;;;;;;;10.56;78.69;100496.91;4974432;28;20520;-61
2021/09/19 02:47:02;;;;;;;4.40;2.22;;;;;;;10.56;79.09;100491.53;4974396;28;20054;-63
2021/09/19 02:49:46;;;;;;;;;;;;;;;10.50;80.00;100495.59;4974482;28;20125;-61
2021/09/19 02:52:31;;;;;;;10.00;2.75;;;;;;;10.60;79.45;100490.28;4974086;28;19929;-61
2021/09/19 02:55:18;;;;;;;5.37;2.80;;;;;;;10.58;79.42;100491.41;4974386;28;20157;-61
2021/09/19 02:58:04;;;;;;;6.07;2.92;;;;;;;10.66;79.36;100491.56;4973853;28;20414;-62
2021/09/19 03:00:49;;;;;;;4.43;2.72;;;;;;;10.64;79.66;100494.38;4974332;28;20166;-62
2021/09/19 03:03:35;;;;;;;5.03;2.78;;;;;;;10.54;80.36;100489.00;4974015;28;20065;-61
2021/09/19 03:06:21;;;;;;;4.65;3.00;;;;;;;10.62;79.66;100493.66;4973811;28;20547;-62
2021/09/19 03:09:07;;;;;;;5.05;2.97;;;;;;;10.53;80.42;100491.78;4973766;28;20693;-63
2021/09/19 03:11:52;;;;;;;7.40;2.65;;;;;;;10.50;80.12;100492.94;4974462;28;20065;-61
2021/09/19 03:14:37;;;;;;;6.60;3.03;;;;;;;10.46;80.75;100504.09;4973994;28;20137;-62
2021/09/19 03:17:22;;;;;;;4.47;2.45;;;;;;;10.42;80.66;100498.16;4973506;28;20062;-62
2021/09/19 03:20:11;;;;;;;4.13;2.42;;;;;;;10.41;80.32;100495.56;4973554;28;20058;-59
2021/09/19 03:22:56;;;;;;;5.85;2.83;;;;;;;10.46;79.97;100498.72;4973828;28;20413;-61
2021/09/19 03:25:41;;;;;;;5.40;2.85;;;;;;;10.54;79.46;100504.25;4973428;28;20062;-64
2021/09/19 03:28:26;;;;;;;5.32;2.85;;;;;;;10.46;79.81;100504.09;4973443;28;20054;-61
2021/09/19 03:31:11;;;;;;;4.70;2.50;;;;;;;10.49;79.73;100499.28;4973486;28;20053;-58
2021/09/19 03:33:57;;;;;;;5.83;3.07;;;;;;;10.50;80.26;100500.97;4973415;28;20129;-60
2021/09/19 03:36:43;;;;;;;5.10;3.05;;;;;;;10.47;79.96;100493.22;4973140;28;20061;-63
2021/09/19 03:39:28;;;;;;;4.50;2.92;;;;;;;10.50;80.31;100502.81;4973372;28;20141;-63
2021/09/19 03:42:13;;;;;;;5.93;2.97;;;;;;;10.45;80.45;100497.88;4974075;28;20148;-63
2021/09/19 03:44:58;;;;;;;7.38;3.25;;;;;;;10.43;80.35;100501.69;4973686;28;20106;-64
2021/09/19 03:47:43;;;;;;;8.48;3.25;;;;;;;10.42;80.75;100491.94;4972860;28;20065;-59
2021/09/19 03:50:28;;;;;;;6.47;2.88;;;;;;;10.43;80.85;100499.00;4973527;28;20058;-62
2021/09/19 03:53:14;;;;;;;6.28;3.10;;;;;;;10.43;80.74;100501.69;4972933;28;20077;-62
2021/09/19 03:55:59;;;;;;;;;;;;;;;10.50;80.27;100502.81;4973693;28;20066;-60
2021/09/19 03:58:44;;;;;;;5.45;2.90;;;;;;;10.51;79.96;100501.81;4973156;28;19933;-63
2021/09/19 04:01:29;;;;;;;4.18;2.53;;;;;;;10.47;79.88;100498.56;4972822;28;20113;-61
2021/09/19 04:04:14;;;;;;;5.38;2.47;;;;;;;10.45;80.06;100502.38;4973356;28;20061;-61
2021/09/19 04:06:59;;;;;;;4.75;2.45;;;;;;;10.47;80.64;100497.72;4972804;28;20076;-61
2021/09/19 04:09:45;;;;;;;5.38;3.05;;;;;;;10.47;80.76;100503.94;4972936;28;20397;-62
2021/09/19 04:12:30;;;;;;;5.57;3.05;;;;;;;10.42;81.42;100508.88;4972746;28;20057;-62
2021/09/19 04:15:15;;;;;;;5.18;3.05;;;;;;;10.54;81.11;100512.31;4972964;28;20061;-62
2021/09/19 04:18:00;;;;;;;5.72;2.65;;;;;;;10.41;81.63;100503.63;4972426;28;20062;-61
2021/09/19 04:20:45;;;;;;;6.82;3.55;;;;;;;10.33;80.75;100503.47;4972996;28;20438;-62
2021/09/19 04:23:30;;;;;;;6.70;3.08;;;;;;;10.38;79.79;100502.06;4972598;28;20129;-61
2021/09/19 04:26:17;;;;;;;5.83;3.03;;;;;;;10.40;79.78;100505.47;4972940;28;20074;-62
2021/09/19 04:29:02;;;;;;;7.22;3.35;;;;;;;10.34;79.52;100506.03;4972939;28;20050;-62
2021/09/19 04:31:47;;;;;;;5.57;3.07;;;;;;;10.33;79.31;100507.00;4973153;28;20541;-60
2021/09/19 04:34:32;;;;;;;5.80;3.00;;;;;;;10.33;79.36;100514.22;4972734;28;20297;-61
2021/09/19 04:37:18;;;;;;;6.60;2.40;;;;;;;10.45;80.12;100511.28;4972222;28;20061;-60
2021/09/19 04:40:04;;;;;;;4.20;2.38;;;;;;;10.37;79.54;100511.09;4972626;28;20128;-61
2021/09/19 04:42:50;;;;;;;6.28;2.55;;;;;;;10.39;80.07;100514.50;4973118;28;20053;-62
2021/09/19 04:45:35;;;;;;;6.07;2.92;;;;;;;10.58;79.78;100512.88;4971497;28;20069;-60
2021/09/19 04:48:22;;;;;;;16.67;3.13;;;;;;;10.49;79.69;100522.59;4972176;28;20062;-61
2021/09/19 04:51:07;;;;;;;6.00;2.80;;;;;;;10.53;80.25;100519.47;4972463;28;20085;-61
2021/09/19 04:53:52;;;;;;;4.22;2.13;;;;;;;10.59;80.07;100518.09;4972349;28;20085;-63
2021/09/19 04:56:37;;;;;;;6.32;2.70;;;;;;;10.47;81.01;100516.50;4972056;28;20078;-63
2021/09/19 04:59:23;;;;;;;5.87;2.80;;;;;;;10.52;80.26;100525.84;4972462;28;20053;-60
2021/09/19 05:02:08;;;;;;;9.48;3.42;;;;;;;10.51;79.05;100518.78;4972177;28;20508;-61
2021/09/19 05:04:54;;;;;;;6.53;3.05;;;;;;;10.56;79.81;100525.59;4971981;28;20058;-62
2021/09/19 05:07:39;;;;;;;6.47;2.90;;;;;;;10.51;79.69;100523.28;4972110;28;20062;-59
2021/09/19 05:10:23;;;;;;;6.57;3.10;;;;;;;10.54;79.28;100520.34;4972132;28;20058;-61
2021/09/19 05:13:08;;;;;;;5.18;2.72;;;;;;;10.38;80.02;100526.22;4972573;28;20062;-62
2021/09/19 05:15:55;;;;;;;8.43;3.03;;;;;;;10.48;77.93;100524.41;4971754;28;20065;-61
2021/09/19 05:18:40;;;;;;;5.82;2.80;;;;;;;10.43;78.77;100525.84;4972126;28;20062;-60
2021/09/19 05:21:25;;;;;;;5.68;3.22;;;;;;;10.37;79.88;100526.38;4972217;28;20077;-61
2021/09/19 05:24:11;;;;;;;5.72;3.40;;;;;;;10.57;78.77;100522.75;4972103;28;20058;-60
2021/09/19 05:26:56;;;;;;;9.85;3.03;;;;;;;10.40;79.50;100520.72;4971941;28;20066;-57
2021/09/19 05:29:41;;;;;;;7.97;3.30;;;;;;;10.44;79.76;100525.69;4972106;28;20073;-60
2021/09/19 05:32:27;;;;;;;4.90;2.50;;;;;;;10.40;80.36;100524.25;4972120;28;20054;-60
2021/09/19 05:35:12;;;;;;;;;;;;;;;10.40;80.83;100521.56;4972501;28;20132;-60
2021/09/19 05:37:57;;;;;;;5.25;2.65;;;;;;;10.38;81.19;100517.31;4971876;28;19969;-61
2021/09/19 05:40:42;;;;;;;5.50;3.13;;;;;;;10.34;81.08;100518.59;4972111;28;20058;-63
2021/09/19 05:43:27;;;;;;;5.53;2.90;;;;;;;10.48;80.90;100520.88;4972020;28;20173;-58
2021/09/19 05:46:12;;;;;;;5.47;2.97;;;;;;;10.44;81.32;100523.00;4971945;28;20177;-62
2021/09/19 05:48:59;;;;;;;8.43;3.28;;;;;;;10.45;81.44;100516.66;4972171;28;20173;-61
2021/09/19 05:51:44;;;;;;;7.82;2.90;;;;;;;10.58;80.66;100520.91;4971756;28;20205;-61
2021/09/19 05:54:29;;;;;;;7.25;3.50;;;;;;;10.71;80.09;100527.72;4972252;28;20161;-61
2021/09/19 05:57:14;;;;;;;8.73;3.35;;;;;;;10.60;80.54;100527.84;4973138;28;20089;-61
2021/09/19 05:59:59;;;;;;;4.45;2.63;;;;;;;10.66;80.33;100537.19;4975330;28;20069;-62
2021/09/19 06:02:44;;;;;;;5.70;3.10;;;;;;;10.76;80.61;100533.53;4970626;28;20062;-61
2021/09/19 06:05:31;;;;;;;5.22;3.13;;;;;;;10.75;80.72;100528.28;4934754;29;20306;-61
2021/09/19 06:08:16;;;;;;;5.10;3.03;;;;;;;10.69;80.44;100531.53;4952865;29;20054;-63
2021/09/19 06:11:01;;;;;;;7.65;3.00;;;;;;;10.65;80.93;100536.31;4955693;29;20057;-60
2021/09/19 06:13:46;;;;;;;5.50;3.20;;;;;;;10.70;80.76;100534.09;4945621;28;20066;-60
2021/09/19 06:16:31;;;;;;;5.45;3.03;;;;;;;10.69;80.72;100532.41;4935734;29;20059;-63
2021/09/19 06:19:16;;;;;;;6.05;3.10;;;;;;;10.88;80.62;100522.66;4936315;29;20187;-63
2021/09/19 06:22:03;;;;;;;7.17;4.97;;;;;;;10.90;79.46;100526.09;4943624;29;20517;-62
2021/09/19 06:24:49;;;;;;;8.02;3.22;;;;;;;10.75;80.69;100522.94;4955231;29;20055;-62
2021/09/19 06:27:34;;;;;;;8.07;3.30;;;;;;;10.93;80.95;100528.47;4954908;29;20066;-62
2021/09/19 06:30:19;;;;;;;7.90;3.17;;;;;;;10.90;80.67;100523.41;4955160;29;20167;-63
2021/09/19 06:33:04;;;;;;;7.97;3.63;;;;;;;10.86;80.81;100525.50;4955700;29;20066;-62
2021/09/19 06:35:49;;;;;;;5.33;2.80;;;;;;;11.02;80.78;100523.13;4954914;29;20069;-62
2021/09/19 06:38:35;;;;;;;6.90;3.75;;;;;;;11.02;80.40;100524.97;4952033;29;20058;-61
2021/09/19 06:41:21;;;;;;;8.55;3.05;;;;;;;10.94;80.90;100533.72;4935942;29;20055;-62
2021/09/19 06:44:06;;;;;;;7.90;3.78;;;;;;;10.95;81.42;100527.34;4935781;29;20074;-60
2021/09/19 06:46:53;;;;;;;4.97;3.03;;;;;;;10.99;81.39;100525.22;4935608;29;20058;-60
2021/09/19 06:49:38;;;;;;;9.73;2.60;;;;;;;10.97;80.78;100525.38;4935709;29;20330;-62
2021/09/19 06:52:23;;;;;;;6.18;3.40;;;;;;;11.03;81.54;100523.97;4936069;29;20062;-61
2021/09/19 06:55:10;;;;;;;5.95;3.25;;;;;;;11.35;79.05;100513.78;4935694;29;20513;-61
2021/09/19 06:57:55;;;;;;;4.38;2.63;;;;;;;11.25;80.02;100512.94;4935836;29;20062;-62
2021/09/19 07:00:40;;;;;;;6.57;3.40;;;;;;;11.35;79.29;100511.09;4935631;29;20142;-62
2021/09/19 07:03:25;;;;;;;4.95;2.97;;;;;;;11.27;79.71;100516.34;4935537;29;20448;-62
2021/09/19 07:06:10;;;;;;;11.00;3.42;;;;;;;11.27;79.83;100516.34;4998763;23;20053;-60
2021/09/19 07:08:57;;;;;;;5.95;3.28;;;;;;;11.21;79.85;100513.34;4993932;28;20061;-58
2021/09/19 07:11:43;;;;;;;5.55;3.08;;;;;;;11.07;80.67;100520.84;4994153;28;20608;-57
2021/09/19 07:14:28;;;;;;;5.35;3.25;;;;;;;11.20;80.99;100523.25;4994810;28;20337;-54
2021/09/19 07:17:14;;;;;;;8.05;3.25;;;;;;;11.23;80.25;100520.28;4994174;28;20431;-59
2021/09/19 07:19:59;;;;;;;6.28;3.40;;;;;;;11.14;80.99;100523.84;4994465;28;20057;-61
2021/09/19 07:22:46;;;;;;;6.03;3.72;;;;;;;11.26;80.78;100517.34;4994432;28;20428;-58
2021/09/19 07:25:31;;;;;;;7.35;3.40;;;;;;;11.26;80.70;100517.34;4994294;28;20487;-59
2021/09/19 07:28:17;;;;;;;9.73;5.00;;;;;;;11.21;80.24;100519.59;4994098;28;20053;-59
2021/09/19 07:31:03;;;;;;;7.07;3.38;;;;;;;11.19;80.82;100523.41;4994452;28;20061;-58
2021/09/19 07:33:48;;;;;;;6.30;3.28;;;;;;;11.42;79.71;100522.97;4993936;28;20065;-56
2021/09/19 07:36:35;;;;;;;9.17;3.17;;;;;;;11.43;80.59;100535.41;4993867;28;20069;-58
2021/09/19 07:39:20;;;;;;;8.68;3.28;;;;;;;11.43;79.87;100538.09;4994046;28;20080;-57
2021/09/19 07:42:06;;;;;;;7.85;3.53;;;;;;;11.40;80.00;100524.13;4994092;28;20695;-60
2021/09/19 07:44:53;;;;;;;;;;;;;;;11.43;79.48;100523.81;4994107;28;20061;-57
2021/09/19 07:47:38;;;;;;;7.70;3.50;;;;;;;11.46;79.77;100528.06;4993814;28;20327;-60
2021/09/19 07:50:23;;;;;;;5.40;2.93;;;;;;;11.46;78.88;100525.38;4993670;28;20130;-55
2021/09/19 07:53:08;;;;;;;9.15;3.08;;;;;;;11.46;80.01;100534.28;4993659;28;20470;-57
2021/09/19 07:55:53;;;;;;;7.05;3.25;;;;;;;11.65;78.91;100530.72;4993376;28;20189;-57
2021/09/19 07:58:38;;;;;;;7.60;3.83;;;;;;;11.67;79.31;100544.88;4993848;28;20144;-60
2021/09/19 08:01:25;;;;;;;7.87;3.87;;;;;;;11.62;78.76;100533.72;4994157;28;20061;-59
2021/09/19 08:04:10;;;;;;;7.43;3.35;;;;;;;11.56;79.75;100529.75;4993849;28;20296;-58
2021/09/19 08:06:55;;;;;;;6.95;2.88;;;;;;;11.57;79.13;100539.50;4993661;28;20204;-58
2021/09/19 08:09:40;;;;;;;8.55;3.22;;;;;;;11.51;79.16;100545.47;4994567;28;20136;-56
2021/09/19 08:12:25;;;;;;;6.07;3.03;;;;;;;11.71;78.14;100543.56;4993073;28;20188;-60
2021/09/19 08:15:10;;;;;;;7.90;3.05;;;;;;;11.75;78.32;100545.00;4974202;28;20162;-56
2021/09/19 08:17:56;;;;;;;7.53;3.47;;;;;;;12.00;77.99;100541.72;4973096;28;20057;-62
2021/09/19 08:20:41;;;;;;;;;;;;;;;12.03;76.88;100553.19;4973194;28;20152;-59
2021/09/19 08:23:26;;;;;;;5.63;2.58;;;;;;;12.19;74.43;100548.00;4973591;28;19928;-58
2021/09/19 08:26:11;;;;;;;6.80;2.67;;;;;;;12.09;73.94;100547.22;4973215;28;20073;-59
2021/09/19 08:28:56;;;;;;;11.35;2.90;;;;;;;12.46;71.85;100547.22;4973578;28;20082;-59
2021/09/19 08:31:41;;;;;;;9.00;3.20;;;;;;;12.56;73.00;100548.88;4973026;28;20381;-60
2021/09/19 08:34:28;;;;;;;6.60;2.67;;;;;;;12.78;71.58;100552.13;4973287;28;20141;-58
2021/09/19 08:37:12;;;;;;;5.05;2.63;;;;;;;12.85;70.15;100556.78;4973078;28;20076;-59
2021/09/19 08:39:57;;;;;;;4.97;2.78;;;;;;;13.12;68.29;100555.03;4973222;28;20057;-58
2021/09/19 08:42:43;;;;;;;5.55;2.70;;;;;;;13.35;66.88;100555.44;4973225;28;20073;-60
2021/09/19 08:45:28;;;;;;;6.05;2.38;;;;;;;13.26;68.00;100550.97;4973193;28;20074;-59
2021/09/19 08:48:16;;;;;;;6.85;3.10;;;;;;;13.11;68.10;100551.50;4973350;28;20065;-58
2021/09/19 08:51:02;;;;;;;4.22;2.53;;;;;;;13.42;67.21;100554.69;4973054;28;20057;-62
2021/09/19 08:53:47;;;;;;;7.05;2.88;;;;;;;13.24;67.31;100552.97;4972812;28;20109;-56
2021/09/19 08:56:32;;;;;;;9.57;2.88;;;;;;;13.62;64.88;100547.28;4972377;28;20533;-58
2021/09/19 08:59:17;;;;;;;6.53;3.15;;;;;;;13.36;66.40;100559.84;4972741;28;20061;-61
2021/09/19 09:02:03;;;;;;;;;;;;;;;13.15;67.91;100555.59;4973272;28;20081;-62
2021/09/19 09:04:54;;;;;;;8.20;3.15;;;;;;;13.20;66.35;100559.69;4972978;28;19929;-58
2021/09/19 09:07:44;;;;;;;5.32;2.42;;;;;;;13.19;66.27;100549.91;4972343;28;20061;-57
2021/09/19 09:10:36;;;;;;;4.50;2.35;;;;;;;13.14;66.60;100553.91;4972866;28;20061;-58
2021/09/19 09:13:23;;;;;;;5.70;3.00;;;;;;;13.46;66.87;100555.22;4972515;28;20121;-57
2021/09/19 09:16:11;;;;;;;6.18;2.63;;;;;;;13.23;65.68;100560.22;4972265;28;20062;-62
2021/09/19 09:18:57;;;;;;;5.72;2.50;;;;;;;13.53;63.75;100564.41;4972581;28;20136;-63
2021/09/19 09:21:43;;;;;;;4.85;2.50;;;;;;;13.03;64.65;100555.97;4972852;28;20058;-62
2021/09/19 09:24:29;;;;;;;5.72;2.65;;;;;;;12.82;63.83;100558.94;4972866;28;20121;-61
2021/09/19 09:27:20;;;;;;;6.30;2.42;;;;;;;13.25;64.25;100555.53;4972441;28;20061;-64
2021/09/19 09:30:15;;;;;;;3.90;2.40;;;;;;;13.40;64.50;100563.94;4972536;28;20061;-63
2021/09/19 09:33:02;;;;;;;7.80;3.42;;;;;;;13.63;63.09;100565.16;4975376;28;20529;-62
2021/09/19 09:35:47;;;;;;;5.65;2.63;;;;;;;13.80;62.42;100559.88;4975802;28;20195;-61
2021/09/19 09:38:32;;;;;;;4.97;2.50;;;;;;;13.46;61.45;100556.06;4976477;28;20152;-61
2021/09/19 09:41:18;;;;;;;7.00;2.53;;;;;;;13.58;60.97;100563.91;4975730;28;20053;-61
2021/09/19 09:44:03;;;;;;;;;;;;;;;13.69;62.30;100560.97;4976718;28;20082;-62
2021/09/19 09:46:49;;;;;;;6.97;2.47;;;;;;;13.66;61.82;100548.66;4975725;28;20013;-63
2021/09/19 09:49:43;;;;;;;8.33;2.27;;;;;;;13.57;62.57;100554.13;4975987;28;20057;-63
2021/09/19 09:52:30;;;;;;;5.70;2.58;;;;;;;13.79;61.77;100542.00;4976149;28;20436;-64
2021/09/19 09:55:15;;;;;;;5.25;2.78;;;;;;;13.84;63.14;100543.22;4975763;28;20063;-63
2021/09/19 09:58:07;;;;;;;7.93;3.05;;;;;;;13.86;60.07;100537.69;4975466;28;20061;-62
2021/09/19 10:00:54;;;;;;;5.93;2.80;;;;;;;14.04;58.93;100539.31;4975815;28;20062;-64
2021/09/19 10:03:39;;;;;;;7.63;2.53;;;;;;;14.40;58.49;100535.63;4975838;28;20058;-61
2021/09/19 10:06:25;;;;;;;4.00;2.25;;;;;;;14.24;57.39;100541.78;4975148;28;20142;-63
2021/09/19 10:09:10;;;;;;;4.50;2.63;;;;;;;14.17;56.68;100538.88;4975906;28;20137;-63
2021/09/19 10:11:56;;;;;;;5.25;2.38;;;;;;;14.43;57.19;100529.88;4975747;28;20054;-63
2021/09/19 10:14:42;;;;;;;4.68;2.13;;;;;;;14.55;56.67;100529.47;4975682;28;20109;-62
2021/09/19 10:17:28;;;;;;;7.43;2.25;;;;;;;14.89;56.64;100531.25;4975245;28;20081;-61
2021/09/19 10:20:16;;;;;;;5.18;2.90;;;;;;;14.56;58.01;100527.59;4975834;28;20466;-62
2021/09/19 10:23:06;;;;;;;4.82;2.05;;;;;;;14.30;58.52;100527.63;4975058;28;20061;-63
2021/09/19 10:25:54;;;;;;;4.97;2.65;;;;;;;13.73;57.49;100527.28;4975135;28;20536;-62
2021/09/19 10:28:40;;;;;;;4.65;2.35;;;;;;;13.34;58.41;100534.91;4975124;28;20061;-63
2021/09/19 10:31:33;;;;;;;4.85;2.20;;;;;;;13.44;57.66;100538.34;4975036;28;20480;-63
2021/09/19 10:34:29;;;;;;;5.60;2.30;;;;;;;13.38;59.49;100541.69;4974929;28;20053;-62
2021/09/19 10:37:14;;;;;;;3.97;2.63;;;;;;;13.35;58.37;100533.88;4975384;28;20058;-61
2021/09/19 10:40:05;;;;;;;3.83;2.10;;;;;;;13.47;59.79;100538.03;4975446;28;20061;-63
2021/09/19 10:42:51;;;;;;;5.43;2.30;;;;;;;13.52;58.90;100535.75;4974637;28;20082;-64
2021/09/19 10:45:39;;;;;;;4.95;2.58;;;;;;;13.65;60.39;100541.56;4975594;28;20054;-62
2021/09/19 10:48:32;;;;;;;3.83;2.17;;;;;;;13.65;57.35;100540.72;4975098;28;20065;-57
2021/09/19 10:51:17;;;;;;;4.88;2.17;;;;;;;13.60;56.46;100534.94;4976189;28;20105;-58
2021/09/19 10:54:02;;;;;;;5.45;2.45;;;;;;;13.62;56.90;100528.41;4974779;28;20065;-59
2021/09/19 10:56:56;;;;;;;4.03;2.30;;;;;;;13.61;55.70;100532.06;4974539;28;20078;-59
2021/09/19 11:00:17;;;;;;;3.70;1.88;;;;;;;13.75;55.03;100531.53;4974823;28;20058;-59
2021/09/19 11:03:12;;;;;;;4.82;2.20;;;;;;;13.88;55.76;100536.50;4974889;28;20640;-57
2021/09/19 11:05:58;;;;;;;5.13;2.22;;;;;;;14.04;54.06;100535.75;4974150;28;20254;-55
2021/09/19 11:08:43;;;;;;;5.55;2.20;;;;;;;14.16;54.67;100534.47;4974399;28;20186;-58
2021/09/19 11:11:30;;;;;;;4.13;2.55;;;;;;;14.22;52.35;100533.84;4974551;28;20054;-57
2021/09/19 11:14:15;;;;;;;3.47;1.95;;;;;;;14.40;54.52;100528.34;4975070;28;20098;-59
2021/09/19 11:17:24;;;;;;;5.20;2.38;;;;;;;14.45;53.84;100523.38;4974525;28;20081;-63
2021/09/19 11:20:24;;;;;;;4.90;2.50;;;;;;;14.64;52.85;100519.53;4975137;28;20162;-64
2021/09/19 11:23:29;;;;;;;5.35;2.53;;;;;;;14.61;53.31;100527.97;4974503;28;20109;-60
2021/09/19 11:26:17;;;;;;;3.65;2.35;;;;;;;14.26;52.22;100529.81;4974378;28;20177;-63
2021/09/19 11:31:23;;;;;;;5.63;2.35;;;;;;;14.70;51.88;100524.31;4971978;28;20157;-58
2021/09/19 11:34:10;;;;;;;4.10;2.17;;;;;;;14.84;51.80;100526.38;4964211;28;20070;-63
2021/09/19 11:37:01;;;;;;;3.80;2.10;;;;;;;15.07;50.26;100523.03;4960762;28;20294;-64
2021/09/19 11:39:47;;;;;;;4.05;2.38;;;;;;;15.48;49.23;100519.34;4954688;29;20061;-62
2021/09/19 11:42:33;;;;;;;3.53;2.08;;;;;;;16.43;47.47;100515.97;4974853;23;20053;-63
2021/09/19 11:45:18;;;;;;;;;;;;;;;15.70;47.94;100508.88;5001431;23;20119;-76
2021/09/19 11:48:03;;;;;;;3.83;2.30;;;;;;;15.06;49.03;100510.53;4999190;23;19928;-64
2021/09/19 11:50:50;;;;;;;5.72;1.92;;;;;;;15.17;48.89;100505.66;4973434;28;20053;-64
2021/09/19 11:53:36;;;;;;;7.35;2.50;;;;;;;14.69;50.71;100503.69;4973167;28;20190;-64
2021/09/19 11:56:24;;;;;;;4.28;2.22;;;;;;;14.83;51.06;100500.34;4972976;28;20061;-62
2021/09/19 11:59:11;;;;;;;4.55;2.53;;;;;;;14.78;51.91;100496.44;4973405;28;20058;-63
2021/09/19 12:01:56;;;;;;;3.28;2.30;;;;;;;14.77;50.99;100505.56;4972840;28;20076;-61
2021/09/19 12:04:43;;;;;;;4.03;2.15;;;;;;;14.48;53.12;100506.84;4973177;28;20109;-63
2021/09/19 12:07:28;;;;;;;5.60;2.67;;;;;;;14.46;53.95;100511.56;4972786;28;20065;-63
2021/09/19 12:10:13;;;;;;;5.37;2.80;;;;;;;14.47;52.14;100504.28;4973022;28;20070;-63
2021/09/19 12:12:59;;;;;;;5.70;2.22;;;;;;;14.43;51.47;100503.72;4962182;28;20102;-61
2021/09/19 12:15:56;;;;;;;7.22;2.25;;;;;;;14.83;52.33;100503.06;4934234;29;20471;-62
2021/09/19 12:18:44;;;;;;;2.92;2.00;;;;;;;14.86;52.04;100499.16;4934249;29;20062;-63
2021/09/19 12:21:30;;;;;;;6.13;2.20;;;;;;;14.87;51.88;100495.47;4951518;29;20058;-61
2021/09/19 12:24:14;;;;;;;4.35;2.20;;;;;;;14.63;53.04;100493.53;4953498;28;20058;-61
2021/09/19 12:27:11;;;;;;;4.43;2.17;;;;;;;14.89;51.39;100491.56;4952952;29;20066;-65
2021/09/19 12:30:05;;;;;;;4.47;1.90;;;;;;;14.96;51.67;100485.53;4953278;29;20086;-63
2021/09/19 12:32:51;;;;;;;4.03;2.42;;;;;;;15.21;53.26;100488.06;4953332;28;20469;-64
2021/09/19 12:35:37;;;;;;;3.40;2.10;;;;;;;15.42;48.90;100490.28;4953055;29;20066;-63
2021/09/19 12:38:25;;;;;;;3.83;2.35;;;;;;;15.48;50.19;100486.03;4953222;29;20512;-63
2021/09/19 12:41:13;;;;;;;6.35;2.22;;;;;;;15.07;51.32;100493.31;4953473;29;20106;-63
2021/09/19 12:43:58;;;;;;;4.22;2.45;;;;;;;15.39;52.00;100485.22;4953090;28;20477;-62
2021/09/19 12:46:46;;;;;;;6.22;2.40;;;;;;;15.18;51.89;100493.81;4953125;29;20247;-63
2021/09/19 12:49:34;;;;;;;5.50;2.22;;;;;;;15.15;51.97;100494.16;4952946;29;20066;-62
2021/09/19 12:52:19;;;;;;;3.92;2.40;;;;;;;14.78;54.15;100491.03;4953316;29;20083;-63
2021/09/19 12:55:06;;;;;;;5.22;2.30;;;;;;;14.51;55.29;100484.91;4952966;29;20050;-65
2021/09/19 12:57:52;;;;;;;5.82;2.47;;;;;;;14.38;55.76;100484.47;4952850;29;20197;-63